Time;durP1;ratioP1;P1;durP2;ratioP2;P2;SDS_P1;SDS_P2;PMS_P1;PMS_P2;Temp;Humidity;BMP_temperature;BMP_pressure;BME280_temperature;BME280_humidity;BME280_pressure;Samples;Min_cycle;Max_cycle;Signal;HPM_P1;HPM_P2
2022/07/23 00:02:17;;;;;;;9.07;4.75;;;;;;;16.62;100.00;100893.34;5201761;28;20044;-75
2022/07/23 00:04:48;;;;;;;7.47;5.30;;;;;;;16.29;100.00;100881.97;5203490;28;20491;-75
2022/07/23 00:07:18;;;;;;;8.23;5.00;;;;;;;16.11;100.00;100893.50;5201636;28;20398;-74
2022/07/23 00:09:48;;;;;;;8.40;5.25;;;;;;;16.16;100.00;100896.72;5201656;28;20021;-74
2022/07/23 00:12:19;;;;;;;8.23;4.82;;;;;;;16.10;100.00;100896.19;5201713;28;20014;-75
2022/07/23 00:14:49;;;;;;;8.68;5.30;;;;;;;16.03;100.00;100900.09;5201959;28;20025;-75
2022/07/23 00:17:20;;;;;;;8.00;5.03;;;;;;;15.97;100.00;100885.47;5201434;28;20043;-75
2022/07/23 00:19:50;;;;;;;9.40;4.97;;;;;;;16.02;100.00;100879.94;5201549;28;20137;-75
2022/07/23 00:22:20;;;;;;;9.95;5.32;;;;;;;16.18;100.00;100876.41;5200496;28;20028;-74
2022/07/23 00:24:51;;;;;;;9.60;5.00;;;;;;;16.44;100.00;100880.31;5201854;28;20040;-75
2022/07/23 00:27:21;;;;;;;7.72;5.05;;;;;;;16.59;100.00;100880.28;5201078;28;20037;-75
2022/07/23 00:29:52;;;;;;;9.18;4.90;;;;;;;16.57;100.00;100879.53;5200300;28;20029;-75
2022/07/23 00:32:22;;;;;;;8.85;4.88;;;;;;;16.83;100.00;100881.59;5200929;28;20410;-75
2022/07/23 00:34:52;;;;;;;9.45;5.10;;;;;;;16.91;100.00;100885.50;5202209;28;20029;-74
2022/07/23 00:37:23;;;;;;;7.95;5.25;;;;;;;16.79;100.00;100888.81;5200954;28;20130;-75
2022/07/23 00:39:53;;;;;;;10.73;5.07;;;;;;;16.55;100.00;100886.69;5202198;28;20037;-74
2022/07/23 00:42:23;;;;;;;9.25;5.53;;;;;;;16.38;100.00;100886.75;5201343;28;20017;-75
2022/07/23 00:44:54;;;;;;;9.55;5.05;;;;;;;16.58;100.00;100878.59;5200985;28;20029;-74
2022/07/23 00:47:24;;;;;;;7.53;5.53;;;;;;;16.82;100.00;100890.44;5199874;28;20033;-74
2022/07/23 00:49:54;;;;;;;8.25;4.90;;;;;;;16.92;100.00;100900.41;5200271;28;20029;-75
2022/07/23 00:52:25;;;;;;;8.38;5.20;;;;;;;16.69;100.00;100904.44;5202050;28;20021;-74
2022/07/23 00:54:56;;;;;;;8.25;4.85;;;;;;;16.52;100.00;100907.97;5192929;28;20095;-74
2022/07/23 00:57:27;;;;;;;8.07;5.18;;;;;;;16.36;100.00;100911.53;5198217;28;20029;-74
2022/07/23 01:00:00;;;;;;;8.35;4.97;;;;;;;16.34;100.00;100897.50;5196210;28;20029;-75
2022/07/23 01:02:30;;;;;;;7.28;4.80;;;;;;;16.38;100.00;100899.94;5201581;28;20032;-75
2022/07/23 01:05:01;;;;;;;9.23;4.88;;;;;;;16.47;100.00;100894.19;5200340;28;20029;-74
2022/07/23 01:07:32;;;;;;;7.90;4.82;;;;;;;16.41;100.00;100886.59;5200221;28;20033;-74
2022/07/23 01:10:04;;;;;;;7.10;4.97;;;;;;;16.29;100.00;100887.25;5200425;28;20029;-74
2022/07/23 01:12:34;;;;;;;6.18;4.57;;;;;;;16.49;100.00;100881.75;5202147;28;20025;-75
2022/07/23 01:15:05;;;;;;;8.20;4.82;;;;;;;16.43;100.00;100884.75;5200825;28;20441;-74
2022/07/23 01:17:35;;;;;;;8.43;6.15;;;;;;;16.33;100.00;100888.78;5201468;28;20029;-75
2022/07/23 01:20:06;;;;;;;13.32;6.93;;;;;;;16.39;100.00;100882.34;5200765;28;20036;-75
2022/07/23 01:22:36;;;;;;;9.55;5.72;;;;;;;16.42;100.00;100883.00;5199971;28;20498;-74
2022/07/23 01:25:07;;;;;;;9.27;5.65;;;;;;;16.31;100.00;100872.19;5202166;28;20179;-75
2022/07/23 01:27:38;;;;;;;8.10;4.85;;;;;;;16.41;100.00;100872.56;5200578;28;20025;-74
2022/07/23 01:30:08;;;;;;;9.57;4.88;;;;;;;16.55;100.00;100872.66;5200807;28;20034;-75
2022/07/23 01:32:39;;;;;;;7.82;4.55;;;;;;;16.78;100.00;100871.28;5200208;28;20079;-75
2022/07/23 01:35:10;;;;;;;8.57;4.60;;;;;;;16.81;100.00;100870.28;5199893;28;20026;-74
2022/07/23 01:37:41;;;;;;;9.73;4.80;;;;;;;16.89;100.00;100862.75;5198431;28;20033;-75
2022/07/23 01:40:11;;;;;;;8.60;4.88;;;;;;;16.72;100.00;100854.94;5199787;28;20190;-75
2022/07/23 01:42:41;;;;;;;8.38;5.00;;;;;;;16.81;100.00;100849.16;5183505;28;20041;-77
2022/07/23 01:45:12;;;;;;;8.43;5.30;;;;;;;16.97;100.00;100850.81;5199918;28;20041;-77
2022/07/23 01:47:42;;;;;;;8.30;5.32;;;;;;;17.01;100.00;100833.84;5182864;28;20368;-77
2022/07/23 01:50:13;;;;;;;10.43;6.20;;;;;;;16.79;100.00;100836.03;5197920;28;20113;-77
2022/07/23 01:52:43;;;;;;;14.40;5.20;;;;;;;16.86;100.00;100832.13;5199921;28;20117;-77
2022/07/23 01:55:14;;;;;;;8.52;5.10;;;;;;;16.97;100.00;100832.34;5200101;28;20128;-78
2022/07/23 01:57:44;;;;;;;10.13;5.05;;;;;;;16.84;100.00;100833.13;5198747;28;20029;-77
2022/07/23 02:00:15;;;;;;;7.35;4.80;;;;;;;16.57;100.00;100829.41;5201008;28;20025;-77
2022/07/23 02:02:45;;;;;;;10.00;5.32;;;;;;;16.67;100.00;100830.59;5201340;28;20029;-77
2022/07/23 02:05:16;;;;;;;7.07;4.65;;;;;;;16.62;100.00;100842.34;5201177;28;20642;-77
2022/07/23 02:07:46;;;;;;;9.25;5.28;;;;;;;16.34;100.00;100840.34;5199460;28;20445;-77
2022/07/23 02:10:17;;;;;;;7.93;4.93;;;;;;;16.08;100.00;100835.63;5199755;28;20072;-77
2022/07/23 02:12:47;;;;;;;9.18;5.13;;;;;;;16.05;100.00;100829.69;5199815;28;20037;-76
2022/07/23 02:15:18;;;;;;;10.85;5.70;;;;;;;15.94;100.00;100830.25;5198377;28;20064;-76
2022/07/23 02:17:48;;;;;;;9.32;5.10;;;;;;;15.98;100.00;100837.06;5199049;28;20061;-77
2022/07/23 02:20:18;;;;;;;8.15;5.28;;;;;;;16.09;100.00;100836.47;5198890;28;20600;-77
2022/07/23 02:22:49;;;;;;;8.52;5.15;;;;;;;16.08;100.00;100827.72;5199384;28;20025;-77
2022/07/23 02:25:19;;;;;;;10.80;5.85;;;;;;;16.00;100.00;100832.56;5199252;28;20029;-77
2022/07/23 02:27:50;;;;;;;8.95;5.30;;;;;;;16.36;100.00;100835.03;5199758;28;20029;-77
2022/07/23 02:30:20;;;;;;;7.30;4.70;;;;;;;16.47;100.00;100843.19;5198708;28;20031;-77
2022/07/23 02:32:50;;;;;;;6.95;4.65;;;;;;;16.38;100.00;100834.00;5182854;28;20028;-77
2022/07/23 02:35:21;;;;;;;9.20;5.05;;;;;;;16.43;100.00;100821.41;5198819;28;20083;-77
2022/07/23 02:37:51;;;;;;;8.18;5.30;;;;;;;16.31;100.00;100816.78;5198588;28;20465;-77
2022/07/23 02:40:22;;;;;;;10.63;5.40;;;;;;;16.62;100.00;100814.19;5198843;28;20044;-77
2022/07/23 02:42:52;;;;;;;12.07;6.05;;;;;;;16.73;100.00;100824.13;5199059;28;20029;-77
2022/07/23 02:45:23;;;;;;;8.07;5.47;;;;;;;16.71;100.00;100826.00;5198900;28;20130;-77
2022/07/23 02:47:53;;;;;;;10.68;5.65;;;;;;;16.48;100.00;100832.56;5198356;28;20025;-77
2022/07/23 02:50:23;;;;;;;9.30;5.57;;;;;;;16.49;100.00;100821.06;5198838;28;20030;-76
2022/07/23 02:52:54;;;;;;;7.70;4.90;;;;;;;16.59;100.00;100826.69;5200691;28;20386;-78
2022/07/23 02:55:24;;;;;;;8.52;5.40;;;;;;;16.62;100.00;100816.81;5200185;28;20045;-77
2022/07/23 02:57:55;;;;;;;9.60;5.20;;;;;;;16.42;100.00;100817.06;5182107;28;20042;-77
2022/07/23 03:00:25;;;;;;;8.23;5.80;;;;;;;16.38;100.00;100827.88;5200243;28;20029;-77
2022/07/23 03:02:55;;;;;;;8.70;5.65;;;;;;;16.48;100.00;100834.34;5198841;28;20025;-77
2022/07/23 03:05:26;;;;;;;7.93;5.80;;;;;;;16.37;100.00;100831.47;5198942;28;20031;-77
2022/07/23 03:07:56;;;;;;;12.60;5.47;;;;;;;16.34;100.00;100832.44;5198473;28;20061;-77
2022/07/23 03:10:27;;;;;;;8.25;5.43;;;;;;;16.52;100.00;100823.53;5200484;28;20534;-76
2022/07/23 03:12:57;;;;;;;7.57;5.47;;;;;;;16.77;100.00;100815.09;5194926;28;20029;-77
2022/07/23 03:15:27;;;;;;;7.38;5.00;;;;;;;16.86;100.00;100831.25;5198988;28;20029;-77
2022/07/23 03:17:58;;;;;;;11.35;6.07;;;;;;;16.84;100.00;100843.69;5198213;28;20504;-77
2022/07/23 03:20:28;;;;;;;11.00;6.00;;;;;;;16.88;100.00;100851.34;5198215;28;20029;-77
2022/07/23 03:22:59;;;;;;;10.07;5.82;;;;;;;17.05;100.00;100853.03;5199817;28;20060;-76
2022/07/23 03:25:29;;;;;;;15.82;5.82;;;;;;;17.08;100.00;100847.56;5198722;28;20041;-77
2022/07/23 03:27:59;;;;;;;10.43;5.88;;;;;;;17.06;100.00;100854.72;5202060;28;20091;-77
2022/07/23 03:30:30;;;;;;;13.70;6.05;;;;;;;17.08;100.00;100863.41;5202636;28;20025;-77
2022/07/23 03:33:00;;;;;;;12.15;5.20;;;;;;;17.00;100.00;100855.09;5202533;28;20021;-77
2022/07/23 03:35:31;;;;;;;10.05;4.88;;;;;;;17.01;100.00;100852.34;5203643;28;20028;-77
2022/07/23 03:38:01;;;;;;;9.43;5.50;;;;;;;17.06;100.00;100849.44;5202615;28;20033;-77
2022/07/23 03:40:31;;;;;;;9.82;5.00;;;;;;;17.07;100.00;100859.94;5202101;28;20124;-77
2022/07/23 03:43:02;;;;;;;11.60;5.07;;;;;;;17.01;100.00;100862.91;5202666;28;20104;-77
2022/07/23 03:45:32;;;;;;;8.13;5.07;;;;;;;16.92;100.00;100863.44;5202322;28;20052;-77
2022/07/23 03:48:03;;;;;;;9.65;5.35;;;;;;;16.95;100.00;100868.53;5201876;28;20430;-76
2022/07/23 03:50:34;;;;;;;9.65;5.03;;;;;;;17.04;100.00;100861.88;5202704;28;20033;-77
2022/07/23 03:53:04;;;;;;;10.57;6.05;;;;;;;16.91;100.00;100860.88;5202576;28;20028;-77
2022/07/23 03:55:35;;;;;;;11.25;6.20;;;;;;;16.66;100.00;100863.19;5201868;28;20026;-77
2022/07/23 03:58:05;;;;;;;11.70;6.28;;;;;;;16.71;100.00;100847.94;5203033;28;20028;-75
2022/07/23 04:00:36;;;;;;;13.27;6.30;;;;;;;16.65;100.00;100840.38;5201904;28;20383;-77
2022/07/23 04:03:06;;;;;;;15.20;6.10;;;;;;;16.84;100.00;100833.13;5203627;28;20022;-77
2022/07/23 04:05:37;;;;;;;11.80;6.30;;;;;;;16.69;100.00;100827.88;5203280;28;20451;-77
2022/07/23 04:08:07;;;;;;;11.60;5.47;;;;;;;16.78;100.00;100833.50;5202984;28;20525;-77
2022/07/23 04:10:37;;;;;;;12.32;6.38;;;;;;;16.75;100.00;100830.16;5201857;28;20019;-77
2022/07/23 04:13:08;;;;;;;10.98;5.97;;;;;;;16.77;100.00;100833.56;5201763;28;20033;-77
2022/07/23 04:15:38;;;;;;;8.38;5.15;;;;;;;16.80;100.00;100813.97;5201809;28;20112;-77
2022/07/23 04:18:09;;;;;;;11.40;6.13;;;;;;;16.49;100.00;100820.19;5202867;28;20098;-77
2022/07/23 04:20:39;;;;;;;10.18;5.90;;;;;;;16.62;100.00;100822.09;5201416;28;20079;-77
2022/07/23 04:23:10;;;;;;;11.25;5.85;;;;;;;16.85;100.00;100835.69;5203040;28;20040;-77
2022/07/23 04:25:40;;;;;;;11.85;5.68;;;;;;;16.93;100.00;100844.00;5201283;28;20048;-77
2022/07/23 04:28:11;;;;;;;9.48;5.70;;;;;;;16.97;100.00;100850.81;5200791;28;20052;-77
2022/07/23 04:30:41;;;;;;;11.15;5.43;;;;;;;16.93;100.00;100845.78;5202572;28;20458;-77
2022/07/23 04:33:12;;;;;;;11.80;5.72;;;;;;;16.67;100.00;100845.56;5201516;28;20107;-77
2022/07/23 04:35:42;;;;;;;10.38;5.70;;;;;;;16.50;100.00;100848.28;5201943;28;20083;-77
2022/07/23 04:38:12;;;;;;;14.60;6.32;;;;;;;16.37;100.00;100853.41;5198789;28;20029;-77
2022/07/23 04:40:43;;;;;;;10.95;5.80;;;;;;;16.48;100.00;100861.59;5201635;28;20032;-77
2022/07/23 04:43:13;;;;;;;7.85;5.25;;;;;;;16.83;100.00;100857.84;5201409;28;20031;-77
2022/07/23 04:45:43;;;;;;;11.48;5.78;;;;;;;16.80;100.00;100858.84;5201601;28;20021;-77
2022/07/23 04:48:14;;;;;;;9.93;5.35;;;;;;;16.77;100.00;100837.06;5200315;28;20044;-77
2022/07/23 04:50:44;;;;;;;8.52;5.43;;;;;;;16.80;100.00;100827.16;5200651;28;20124;-76
2022/07/23 04:53:15;;;;;;;12.18;5.70;;;;;;;16.91;100.00;100831.81;5200995;28;20028;-77
2022/07/23 04:55:45;;;;;;;11.20;5.22;;;;;;;16.95;100.00;100842.13;5201379;28;20022;-77
2022/07/23 04:58:16;;;;;;;13.27;5.80;;;;;;;16.76;100.00;100842.41;5200004;28;20390;-77
2022/07/23 05:00:47;;;;;;;9.80;5.35;;;;;;;16.79;100.00;100840.47;5201577;28;20057;-76
2022/07/23 05:03:17;;;;;;;12.82;5.50;;;;;;;16.85;100.00;100826.91;5200947;28;20080;-77
2022/07/23 05:05:48;;;;;;;11.93;5.90;;;;;;;16.47;100.00;100822.09;5201446;28;20086;-77
2022/07/23 05:08:18;;;;;;;10.00;5.72;;;;;;;16.64;100.00;100820.22;5200098;28;20018;-77
2022/07/23 05:10:48;;;;;;;14.63;5.85;;;;;;;16.80;100.00;100826.31;5200740;28;20029;-77
2022/07/23 05:13:19;;;;;;;8.93;5.53;;;;;;;16.96;100.00;100837.72;5200807;28;20283;-76
2022/07/23 05:15:49;;;;;;;10.73;6.10;;;;;;;16.88;100.00;100845.22;5202408;28;20255;-77
2022/07/23 05:18:20;;;;;;;11.70;6.00;;;;;;;16.79;100.00;100835.19;5199806;28;20522;-77
2022/07/23 05:20:50;;;;;;;9.70;5.93;;;;;;;16.91;100.00;100842.38;5200406;28;20384;-76
2022/07/23 05:23:20;;;;;;;11.60;5.70;;;;;;;17.11;100.00;100842.94;5200286;28;20021;-77
2022/07/23 05:25:51;;;;;;;12.18;5.85;;;;;;;17.03;100.00;100842.56;5202313;28;20037;-77
2022/07/23 05:28:22;;;;;;;12.88;6.38;;;;;;;17.20;100.00;100852.13;5199836;28;20031;-77
2022/07/23 05:30:52;;;;;;;8.45;5.07;;;;;;;17.47;100.00;100855.84;5199927;28;20029;-77
2022/07/23 05:33:22;;;;;;;11.48;5.78;;;;;;;17.43;100.00;100860.47;5200480;28;20475;-78
2022/07/23 05:35:53;;;;;;;9.00;5.32;;;;;;;17.50;100.00;100860.94;5201573;28;20513;-77
2022/07/23 05:38:23;;;;;;;9.10;5.32;;;;;;;17.55;100.00;100858.88;5199494;28;20021;-77
2022/07/23 05:40:54;;;;;;;10.30;5.60;;;;;;;17.52;100.00;100869.63;5200461;28;20112;-77
2022/07/23 05:43:24;;;;;;;11.38;6.43;;;;;;;17.81;100.00;100866.13;5199728;28;20028;-77
2022/07/23 05:45:54;;;;;;;18.35;9.02;;;;;;;17.95;100.00;100863.44;5201150;28;20041;-77
2022/07/23 05:48:25;;;;;;;31.40;18.02;;;;;;;17.85;100.00;100864.97;5200839;28;20267;-77
2022/07/23 05:50:55;;;;;;;22.58;10.90;;;;;;;18.15;100.00;100850.72;5199855;28;20395;-75
2022/07/23 05:53:26;;;;;;;13.18;6.28;;;;;;;18.15;100.00;100849.88;5200230;28;20019;-74
2022/07/23 05:55:56;;;;;;;10.13;5.88;;;;;;;19.10;96.63;100851.56;5200007;28;20029;-74
2022/07/23 05:58:27;;;;;;;11.70;6.40;;;;;;;19.51;92.52;100843.50;5198774;28;20534;-75
2022/07/23 06:00:57;;;;;;;8.80;4.85;;;;;;;19.88;92.59;100837.38;5201908;28;20049;-75
2022/07/23 06:03:28;;;;;;;10.98;4.88;;;;;;;22.04;85.20;100837.94;5199611;28;20028;-75
2022/07/23 06:05:58;;;;;;;8.32;4.75;;;;;;;21.66;83.71;100842.75;5199668;28;20555;-75
2022/07/23 06:08:28;;;;;;;8.25;5.32;;;;;;;22.46;79.63;100845.25;5198991;28;20033;-74
2022/07/23 06:10:59;;;;;;;10.10;5.07;;;;;;;21.98;79.60;100839.28;5200214;28;20029;-74
2022/07/23 06:13:29;;;;;;;9.13;4.75;;;;;;;22.32;78.88;100842.78;5199589;28;20091;-75
2022/07/23 06:15:59;;;;;;;8.48;5.00;;;;;;;22.70;78.72;100847.59;5199505;28;20021;-77
2022/07/23 06:18:30;;;;;;;7.80;4.85;;;;;;;21.53;81.73;100852.59;5198494;28;20503;-77
2022/07/23 06:21:00;;;;;;;8.75;4.88;;;;;;;21.17;82.69;100850.03;5198214;28;20025;-78
2022/07/23 06:23:31;;;;;;;8.27;4.63;;;;;;;22.33;80.31;100850.69;5199174;28;20060;-78
2022/07/23 06:26:01;;;;;;;11.45;5.00;;;;;;;22.46;78.64;100848.75;5199088;28;20519;-77
2022/07/23 06:28:31;;;;;;;9.07;4.60;;;;;;;22.66;77.08;100847.16;5197988;28;20031;-77
2022/07/23 06:31:02;;;;;;;10.52;4.80;;;;;;;22.05;79.71;100855.66;5200663;28;20068;-77
2022/07/23 06:33:33;;;;;;;8.75;4.18;;;;;;;22.56;78.26;100847.03;5199702;28;20032;-77
2022/07/23 06:36:04;;;;;;;8.73;4.18;;;;;;;23.24;76.83;100850.28;5198866;28;20037;-77
2022/07/23 06:41:18;;;;;;;10.05;4.00;;;;;;;23.55;71.52;100855.56;5195291;28;20053;-72
2022/07/23 06:43:49;;;;;;;8.38;4.40;;;;;;;23.93;71.55;100845.19;5199309;28;20119;-73
2022/07/23 06:46:20;;;;;;;7.15;4.00;;;;;;;24.57;69.28;100845.75;5198448;28;20033;-72
2022/07/23 06:48:51;;;;;;;11.60;4.05;;;;;;;24.95;67.76;100838.66;5198380;28;20028;-72
2022/07/23 06:51:21;;;;;;;7.13;3.30;;;;;;;25.19;66.54;100841.81;5198569;28;20021;-71
2022/07/23 06:53:51;;;;;;;8.35;4.18;;;;;;;24.60;67.85;100849.03;5199770;28;20063;-72
2022/07/23 06:56:22;;;;;;;9.02;4.00;;;;;;;24.36;69.84;100852.97;5199073;28;20021;-72
2022/07/23 06:58:52;;;;;;;10.23;3.92;;;;;;;24.98;67.86;100841.88;5198910;28;20200;-72
2022/07/23 07:01:23;;;;;;;10.10;4.00;;;;;;;25.17;67.76;100843.75;5200418;28;20055;-72
2022/07/23 07:03:53;;;;;;;6.10;3.45;;;;;;;25.26;67.40;100841.09;5203399;28;20033;-73
2022/07/23 07:06:23;;;;;;;8.25;3.50;;;;;;;25.07;68.49;100840.22;5203202;28;20410;-73
2022/07/23 07:08:55;;;;;;;7.47;3.67;;;;;;;23.99;69.54;100844.66;5202699;28;20033;-72
2022/07/23 07:11:26;;;;;;;9.68;4.20;;;;;;;24.17;68.72;100853.72;5201360;28;20026;-72
2022/07/23 07:13:56;;;;;;;7.97;3.65;;;;;;;24.86;68.25;100859.06;5202803;28;20041;-72
2022/07/23 07:16:26;;;;;;;9.90;3.90;;;;;;;24.46;66.91;100849.34;5197969;28;20029;-71
2022/07/23 07:18:57;;;;;;;6.72;3.28;;;;;;;23.88;68.49;100852.72;5181950;28;20119;-72
2022/07/23 07:21:27;;;;;;;6.80;3.38;;;;;;;23.29;70.07;100851.59;5201963;28;20021;-72
2022/07/23 07:23:57;;;;;;;9.77;3.55;;;;;;;23.00;71.12;100857.63;5201284;28;20059;-72
2022/07/23 07:26:28;;;;;;;8.85;3.90;;;;;;;23.14;69.54;100860.00;5203042;28;20534;-71
2022/07/23 07:28:58;;;;;;;9.52;3.90;;;;;;;22.44;71.25;100868.50;5202984;28;20053;-72
2022/07/23 07:31:29;;;;;;;9.10;3.90;;;;;;;22.11;73.18;100871.13;5202636;28;20032;-72
2022/07/23 07:33:59;;;;;;;8.45;4.00;;;;;;;21.85;73.35;100870.50;5202874;28;20122;-72
2022/07/23 07:36:30;;;;;;;5.75;3.75;;;;;;;23.27;70.72;100876.69;5203456;28;20560;-72
2022/07/23 07:39:00;;;;;;;7.85;3.40;;;;;;;24.86;65.77;100880.47;5203457;28;20037;-72
2022/07/23 07:41:31;;;;;;;6.93;3.17;;;;;;;24.58;66.14;100872.34;5203554;28;20025;-72
2022/07/23 07:44:01;;;;;;;6.03;2.72;;;;;;;24.53;65.34;100868.41;5201660;28;20453;-72
2022/07/23 07:46:32;;;;;;;6.60;3.17;;;;;;;24.69;65.01;100872.25;5200977;28;20021;-71
2022/07/23 07:49:02;;;;;;;8.75;2.90;;;;;;;26.58;60.96;100867.75;5201349;28;20057;-72
2022/07/23 07:51:32;;;;;;;5.07;2.70;;;;;;;26.77;59.39;100880.06;5184783;28;20040;-72
2022/07/23 07:54:03;;;;;;;5.78;2.20;;;;;;;27.55;58.54;100884.75;5202097;28;20056;-72
2022/07/23 07:56:33;;;;;;;5.65;2.38;;;;;;;28.54;57.49;100875.22;5196487;28;20026;-72
2022/07/23 07:59:04;;;;;;;4.75;2.05;;;;;;;27.39;58.78;100874.72;5201650;28;20025;-72
2022/07/23 08:01:34;;;;;;;4.88;2.50;;;;;;;27.68;58.00;100872.63;5201940;28;20112;-72
2022/07/23 08:04:04;;;;;;;6.45;2.65;;;;;;;28.06;57.69;100880.31;5203742;28;20029;-72
2022/07/23 08:06:35;;;;;;;6.97;2.50;;;;;;;26.77;59.29;100888.09;5203048;28;20641;-71
2022/07/23 08:09:05;;;;;;;5.15;2.35;;;;;;;27.02;59.02;100881.19;5202813;28;20278;-72
2022/07/23 08:11:36;;;;;;;45.38;5.18;;;;;;;28.06;57.54;100884.81;5203421;28;20075;-71
2022/07/23 08:14:06;;;;;;;6.57;2.53;;;;;;;29.36;54.75;100870.75;5200213;28;20040;-72
2022/07/23 08:16:37;;;;;;;8.43;2.17;;;;;;;29.65;54.77;100876.53;5202422;28;20064;-72
2022/07/23 08:19:07;;;;;;;5.22;2.00;;;;;;;26.34;59.26;100892.38;5201198;28;20052;-71
2022/07/23 08:21:37;;;;;;;6.22;1.80;;;;;;;26.37;59.03;100904.66;5198420;28;20502;-71
2022/07/23 08:24:07;;;;;;;5.83;2.00;;;;;;;26.30;57.39;100895.50;5202885;28;20171;-72
2022/07/23 08:26:38;;;;;;;5.97;1.75;;;;;;;27.93;56.02;100898.69;5197877;28;20343;-71
2022/07/23 08:29:08;;;;;;;40.20;4.28;;;;;;;26.40;59.13;100891.81;5199356;28;20105;-72
2022/07/23 08:31:40;;;;;;;4.95;1.60;;;;;;;25.95;58.93;100898.84;5202828;28;20052;-71
2022/07/23 08:34:10;;;;;;;2.42;1.40;;;;;;;25.26;61.04;100896.44;5201084;28;20603;-71
2022/07/23 08:36:40;;;;;;;5.53;1.50;;;;;;;25.16;60.57;100906.28;5201217;28;20048;-71
2022/07/23 08:39:11;;;;;;;5.55;1.92;;;;;;;23.89;63.58;100907.00;5201999;28;20562;-71
2022/07/23 08:41:41;;;;;;;8.55;2.15;;;;;;;24.11;64.52;100907.72;5194554;28;20021;-72
2022/07/23 08:44:12;;;;;;;4.18;1.48;;;;;;;23.80;65.04;100908.59;5199447;28;20030;-71
2022/07/23 08:46:44;;;;;;;5.22;1.48;;;;;;;24.21;63.15;100905.91;5200627;28;20048;-71
2022/07/23 08:49:14;;;;;;;5.50;1.88;;;;;;;23.82;62.89;100906.66;5200789;28;20033;-71
2022/07/23 08:51:46;;;;;;;6.43;1.70;;;;;;;24.59;63.56;100903.44;5198077;28;20052;-71
2022/07/23 08:54:17;;;;;;;6.63;1.98;;;;;;;26.24;58.93;100899.63;5183076;28;21101;-71
2022/07/23 08:56:48;;;;;;;3.38;1.60;;;;;;;26.27;59.35;100898.47;5200349;28;20047;-69
2022/07/23 08:59:18;;;;;;;5.82;1.60;;;;;;;25.76;59.43;100898.84;5198260;28;20050;-71
2022/07/23 09:01:49;;;;;;;5.57;1.80;;;;;;;24.61;62.58;100911.34;5198198;28;20196;-71
2022/07/23 09:04:19;;;;;;;3.80;1.60;;;;;;;24.59;61.96;100911.47;5201096;28;20029;-71
2022/07/23 09:06:50;;;;;;;6.07;1.70;;;;;;;24.02;64.03;100916.50;5199295;28;20068;-71
2022/07/23 09:09:21;;;;;;;6.40;2.28;;;;;;;24.09;63.45;100914.16;5187652;28;20479;-71
2022/07/23 09:12:05;;;;;;;5.53;1.63;;;;;;;23.40;66.69;100914.72;5200518;28;20033;-71
2022/07/23 09:14:44;;;;;;;7.78;1.73;;;;;;;24.78;62.95;100906.19;5196174;28;20071;-71
2022/07/23 09:17:16;;;;;;;4.60;1.77;;;;;;;26.68;58.04;100898.06;5199290;28;20033;-71
2022/07/23 09:19:47;;;;;;;4.55;1.38;;;;;;;28.33;54.68;100890.09;5196309;28;20048;-72
2022/07/23 09:22:28;;;;;;;5.35;1.63;;;;;;;29.35;53.95;100887.91;5200743;28;20127;-71
2022/07/23 09:25:18;;;;;;;5.93;1.42;;;;;;;27.53;56.01;100897.50;5195875;28;20120;-72
2022/07/23 09:27:55;;;;;;;3.53;1.10;;;;;;;26.74;56.67;100901.81;5198890;28;20082;-71
2022/07/23 09:30:28;;;;;;;5.15;1.23;;;;;;;25.83;57.68;100904.47;5199383;28;20443;-71
2022/07/23 09:33:15;;;;;;;7.75;1.40;;;;;;;25.52;59.39;100900.28;5195218;28;20037;-71
2022/07/23 09:35:49;;;;;;;4.55;1.35;;;;;;;26.88;56.57;100895.97;5199096;28;20203;-71
2022/07/23 09:38:22;;;;;;;2.92;1.00;;;;;;;28.05;55.30;100894.75;5199845;28;20052;-71
2022/07/23 09:41:09;;;;;;;3.35;1.20;;;;;;;29.48;52.56;100896.41;5200176;28;20124;-71
2022/07/23 09:43:40;;;;;;;3.17;1.20;;;;;;;28.30;53.47;100896.59;5197584;28;20033;-71
2022/07/23 09:46:18;;;;;;;3.58;1.05;;;;;;;29.35;51.67;100898.69;5200438;28;20742;-71
2022/07/23 09:48:51;;;;;;;5.88;1.33;;;;;;;29.42;50.60;100895.16;5199325;28;20075;-71
2022/07/23 09:53:53;;;;;;;3.38;1.40;;;;;;;28.11;53.53;100899.50;5199194;28;20457;-72
2022/07/23 09:56:25;;;;;;;3.70;1.20;;;;;;;27.21;54.27;100892.66;5197561;28;20030;-71
2022/07/23 09:59:12;;;;;;;3.17;1.10;;;;;;;26.39;55.87;100903.53;5197708;28;20525;-71
2022/07/23 10:01:43;;;;;;;2.75;1.30;;;;;;;27.69;54.21;100898.50;5196482;28;20079;-71
2022/07/23 10:04:14;;;;;;;3.78;1.50;;;;;;;27.39;53.94;100901.56;5197337;28;20068;-71
2022/07/23 10:06:45;;;;;;;5.20;1.58;;;;;;;28.01;54.51;100898.78;5198813;28;20018;-71
2022/07/23 10:09:20;;;;;;;3.83;1.23;;;;;;;28.58;53.17;100890.03;5198036;28;20033;-72
2022/07/23 10:11:55;;;;;;;;;;;;;;;28.02;53.33;100895.09;5198720;28;20020;-71
2022/07/23 10:14:25;;;;;;;3.97;1.73;;;;;;;28.28;52.37;100882.44;5198050;28;20295;-71
2022/07/23 10:16:56;;;;;;;5.38;1.65;;;;;;;27.89;53.71;100894.63;5197700;28;20025;-71
2022/07/23 10:19:27;;;;;;;3.42;1.30;;;;;;;27.14;53.41;100896.09;5195081;28;20056;-71
2022/07/23 10:22:03;;;;;;;4.57;1.38;;;;;;;26.88;54.91;100895.09;5196646;28;20223;-71
2022/07/23 10:25:05;;;;;;;4.38;1.50;;;;;;;26.15;56.04;100894.28;5194738;28;20064;-71
2022/07/23 10:28:14;;;;;;;4.53;1.63;;;;;;;25.01;58.45;100896.97;5188072;28;20677;-71
2022/07/23 10:31:02;;;;;;;4.85;1.80;;;;;;;25.75;57.79;100891.81;5193928;28;20037;-72
2022/07/23 10:33:50;;;;;;;2.85;1.50;;;;;;;25.88;58.17;100886.16;5194485;28;20034;-71
2022/07/23 10:36:29;;;;;;;4.88;1.70;;;;;;;25.77;57.19;100889.81;5193359;28;20030;-71
2022/07/23 10:39:17;;;;;;;3.35;1.50;;;;;;;25.68;56.43;100885.31;5196823;28;20037;-71
2022/07/23 10:41:48;;;;;;;4.00;1.73;;;;;;;25.92;56.52;100882.19;5196988;28;20048;-72
2022/07/23 10:44:23;;;;;;;4.65;1.63;;;;;;;25.23;58.00;100886.88;5198088;28;20467;-71
2022/07/23 10:49:33;;;;;;;3.45;1.70;;;;;;;25.23;57.63;100888.69;5194456;28;20061;-71
2022/07/23 10:52:26;;;;;;;3.90;1.60;;;;;;;24.98;58.07;100895.38;5197812;28;20037;-72
2022/07/23 10:55:16;;;;;;;4.57;1.55;;;;;;;24.95;58.88;100900.19;5163872;28;20199;-73
2022/07/23 10:57:49;;;;;;;4.22;2.05;;;;;;;24.53;59.49;100895.97;5196186;28;20607;-72
2022/07/23 11:00:22;;;;;;;3.70;1.50;;;;;;;24.89;59.18;100903.41;5197508;28;20124;-72
2022/07/23 11:02:54;;;;;;;3.33;1.42;;;;;;;24.91;57.23;100893.41;5197574;28;20027;-72
2022/07/23 11:05:39;;;;;;;2.47;1.20;;;;;;;24.88;57.60;100904.38;5196057;28;20073;-71
2022/07/23 11:08:14;;;;;;;4.43;1.30;;;;;;;25.34;57.93;100878.69;5196088;28;20048;-71
2022/07/23 11:11:03;;;;;;;6.70;1.20;;;;;;;25.10;58.62;100888.94;5194774;28;20033;-71
2022/07/23 11:13:38;;;;;;;3.22;1.17;;;;;;;25.60;57.45;100881.66;5190965;28;20076;-72
2022/07/23 11:16:16;;;;;;;3.47;1.10;;;;;;;25.22;58.14;100897.72;5196277;28;20043;-71
2022/07/23 11:18:46;;;;;;;3.22;1.35;;;;;;;24.68;58.18;100891.94;5176961;28;20335;-72
2022/07/23 11:21:23;;;;;;;2.97;1.10;;;;;;;24.93;58.32;100899.47;5195022;28;20106;-71
2022/07/23 11:24:00;;;;;;;3.13;1.00;;;;;;;25.03;57.06;100889.63;5192793;28;20036;-72
2022/07/23 11:26:42;;;;;;;1.30;0.70;;;;;;;25.00;58.04;100893.41;5191515;28;20037;-71
2022/07/23 11:29:27;;;;;;;1.75;0.80;;;;;;;24.97;57.52;100887.53;5191578;28;20568;-71
2022/07/23 11:32:01;;;;;;;2.85;0.80;;;;;;;24.92;57.38;100887.06;5192372;28;20087;-71
2022/07/23 11:34:39;;;;;;;5.47;0.80;;;;;;;25.28;56.54;100887.31;5194508;28;20029;-71
2022/07/23 11:37:11;;;;;;;2.42;1.00;;;;;;;25.42;57.35;100880.66;5196301;28;20017;-72
2022/07/23 11:39:46;;;;;;;2.60;1.08;;;;;;;25.43;56.80;100891.25;5195649;28;20029;-72
2022/07/23 11:42:18;;;;;;;2.35;0.82;;;;;;;24.94;56.64;100899.34;5190763;28;20047;-72
2022/07/23 11:44:50;;;;;;;2.40;0.80;;;;;;;24.88;57.45;100888.34;5192684;28;20419;-71
2022/07/23 11:47:24;;;;;;;3.15;0.90;;;;;;;24.98;57.17;100894.56;5196569;28;20037;-72
2022/07/23 11:50:00;;;;;;;2.60;0.80;;;;;;;25.13;57.37;100885.97;5198179;28;20259;-71